AAL456 TNCM-KMIA
Flight info
| Callsign | AAL456 |
|---|---|
| Flight time | N/A |
| Altitude | 36000 |
| Route | MODOR2 JUICE B520 STT RTE6 SJU DCT ACONY Y308 MADIZ VIICE2 |
| Aircraft | A320/M-SDE3FGHIRWY/LB1 |
Departure
| Time | 2026-05-05 07:52 |
|---|---|
| Airport | Princess Juliana International Airport (TNCM) |
Arrival
| Time | N/A |
|---|---|
| Airport | Miami International Airport (KMIA) |
| Time | Latitude | Longitude | Altitude | Speed | Heading |
|---|---|---|---|---|---|
| 2026-05-05 07:28 | 18.04335 | -63.11366 | 29 ft | 0 kts | 353° |
| 2026-05-05 07:46 | 18.04327 | -63.11365 | 29 ft | 4 kts | 350° |
| 2026-05-05 07:46 | 18.04302 | -63.11357 | 29 ft | 4 kts | 329° |
| 2026-05-05 07:46 | 18.04283 | -63.11339 | 29 ft | 4 kts | 301° |
| 2026-05-05 07:46 | 18.04273 | -63.11314 | 29 ft | 4 kts | 278° |
| 2026-05-05 07:47 | 18.04272 | -63.11286 | 29 ft | 4 kts | 261° |
| 2026-05-05 07:47 | 18.04279 | -63.11259 | 29 ft | 3 kts | 243° |
| 2026-05-05 07:47 | 18.04280 | -63.11255 | 29 ft | 0 kts | 241° |
| 2026-05-05 07:49 | 18.04279 | -63.11258 | 29 ft | 2 kts | 241° |
| 2026-05-05 07:49 | 18.04266 | -63.11282 | 29 ft | 5 kts | 241° |
| 2026-05-05 07:49 | 18.04245 | -63.11329 | 29 ft | 8 kts | 252° |
| 2026-05-05 07:50 | 18.04233 | -63.11396 | 29 ft | 10 kts | 261° |
| 2026-05-05 07:50 | 18.04222 | -63.11466 | 29 ft | 9 kts | 254° |
| 2026-05-05 07:50 | 18.04177 | -63.11533 | 29 ft | 13 kts | 230° |
| 2026-05-05 07:50 | 18.04123 | -63.11602 | 28 ft | 12 kts | 230° |
| 2026-05-05 07:51 | 18.04070 | -63.11676 | 28 ft | 16 kts | 239° |
| 2026-05-05 07:51 | 18.04048 | -63.11794 | 28 ft | 16 kts | 261° |
| 2026-05-05 07:51 | 18.04026 | -63.11904 | 28 ft | 15 kts | 245° |
| 2026-05-05 07:51 | 18.03964 | -63.11967 | 28 ft | 11 kts | 179° |
| 2026-05-05 07:52 | 18.03947 | -63.11909 | 28 ft | 11 kts | 83° |
| 2026-05-05 07:52 | 18.03983 | -63.11658 | 28 ft | 79 kts | 82° |
| 2026-05-05 07:52 | 18.04111 | -63.10756 | 89 ft | 158 kts | 84° |
| 2026-05-05 07:52 | 18.04236 | -63.09575 | 944 ft | 168 kts | 93° |
| 2026-05-05 07:53 | 18.03773 | -63.08427 | 1579 ft | 187 kts | 134° |
| 2026-05-05 07:53 | 18.02504 | -63.07855 | 1897 ft | 217 kts | 169° |
| 2026-05-05 07:53 | 18.00906 | -63.07799 | 2360 ft | 246 kts | 179° |
| 2026-05-05 07:53 | 17.99136 | -63.07891 | 3154 ft | 259 kts | 181° |
| 2026-05-05 07:54 | 17.97318 | -63.08007 | 4152 ft | 264 kts | 180° |
| 2026-05-05 07:54 | 17.95475 | -63.08119 | 5133 ft | 271 kts | 185° |
| 2026-05-05 07:54 | 17.93657 | -63.08712 | 6109 ft | 279 kts | 206° |
| 2026-05-05 07:54 | 17.92181 | -63.10058 | 7069 ft | 283 kts | 233° |
| 2026-05-05 07:55 | 17.91408 | -63.11948 | 7895 ft | 292 kts | 259° |
| 2026-05-05 07:55 | 17.91547 | -63.14084 | 8778 ft | 297 kts | 288° |
| 2026-05-05 07:55 | 17.92336 | -63.16100 | 9749 ft | 298 kts | 293° |
| 2026-05-05 07:55 | 17.93184 | -63.18123 | 10438 ft | 310 kts | 293° |
| 2026-05-05 07:56 | 17.94075 | -63.20246 | 10763 ft | 332 kts | 293° |
| 2026-05-05 07:56 | 17.95020 | -63.22506 | 11372 ft | 341 kts | 293° |
| 2026-05-05 07:56 | 17.95976 | -63.24812 | 12121 ft | 345 kts | 292° |
| 2026-05-05 07:56 | 17.96936 | -63.27144 | 12890 ft | 349 kts | 292° |
| 2026-05-05 07:57 | 17.97895 | -63.29477 | 13635 ft | 353 kts | 292° |
| 2026-05-05 07:57 | 17.98873 | -63.31865 | 14348 ft | 356 kts | 292° |
| 2026-05-05 07:57 | 17.99856 | -63.34268 | 15053 ft | 358 kts | 292° |
| 2026-05-05 07:57 | 18.00506 | -63.35860 | 15529 ft | 359 kts | 292° |
| 2026-05-05 07:58 | 18.01822 | -63.39076 | 16483 ft | 361 kts | 292° |
| 2026-05-05 07:58 | 18.02486 | -63.40694 | 16965 ft | 362 kts | 292° |
| 2026-05-05 07:58 | 18.03816 | -63.43938 | 17916 ft | 365 kts | 293° |
| 2026-05-05 07:58 | 18.04496 | -63.45597 | 18398 ft | 366 kts | 293° |
| 2026-05-05 07:59 | 18.05495 | -63.48043 | 18973 ft | 369 kts | 292° |
| 2026-05-05 07:59 | 18.06515 | -63.50549 | 19528 ft | 373 kts | 292° |
| 2026-05-05 07:59 | 18.07540 | -63.53061 | 20096 ft | 377 kts | 292° |
| 2026-05-05 07:59 | 18.08590 | -63.55628 | 20517 ft | 384 kts | 292° |
| 2026-05-05 08:00 | 18.09640 | -63.58203 | 21030 ft | 389 kts | 289° |
| 2026-05-05 08:00 | 18.10711 | -63.60837 | 21599 ft | 392 kts | 290° |
| 2026-05-05 08:00 | 18.11784 | -63.63466 | 22051 ft | 398 kts | 292° |
| 2026-05-05 08:00 | 18.12847 | -63.66191 | 22513 ft | 403 kts | 286° |
| 2026-05-05 08:01 | 18.13516 | -63.69065 | 22987 ft | 407 kts | 278° |
| 2026-05-05 08:01 | 18.14011 | -63.72010 | 23470 ft | 411 kts | 278° |
| 2026-05-05 08:01 | 18.14511 | -63.74997 | 23902 ft | 416 kts | 277° |
| 2026-05-05 08:01 | 18.15011 | -63.77978 | 24349 ft | 418 kts | 277° |
| 2026-05-05 08:02 | 18.15519 | -63.81005 | 24791 ft | 420 kts | 277° |
| 2026-05-05 08:02 | 18.16024 | -63.84017 | 25222 ft | 422 kts | 278° |
| 2026-05-05 08:02 | 18.16537 | -63.87081 | 25647 ft | 425 kts | 278° |
| 2026-05-05 08:02 | 18.17057 | -63.90161 | 26066 ft | 427 kts | 278° |
| 2026-05-05 08:03 | 18.17576 | -63.93251 | 26482 ft | 429 kts | 278° |
| 2026-05-05 08:03 | 18.18094 | -63.96317 | 26898 ft | 431 kts | 279° |
| 2026-05-05 08:03 | 18.18619 | -63.99440 | 27280 ft | 433 kts | 279° |
| 2026-05-05 08:03 | 18.19137 | -64.02539 | 27665 ft | 435 kts | 279° |
| 2026-05-05 08:04 | 18.19664 | -64.05701 | 28044 ft | 437 kts | 279° |
| 2026-05-05 08:04 | 18.20194 | -64.08871 | 28437 ft | 439 kts | 279° |
| 2026-05-05 08:04 | 18.20715 | -64.12004 | 28831 ft | 441 kts | 279° |
| 2026-05-05 08:04 | 18.21245 | -64.15195 | 29198 ft | 442 kts | 279° |
| 2026-05-05 08:05 | 18.21775 | -64.18382 | 29587 ft | 443 kts | 279° |
| 2026-05-05 08:05 | 18.22312 | -64.21600 | 29892 ft | 446 kts | 279° |
| 2026-05-05 08:05 | 18.22847 | -64.24793 | 30211 ft | 449 kts | 280° |
| 2026-05-05 08:05 | 18.23390 | -64.28045 | 30463 ft | 451 kts | 279° |
| 2026-05-05 08:06 | 18.23928 | -64.31299 | 30792 ft | 451 kts | 279° |
| 2026-05-05 08:06 | 18.24466 | -64.34562 | 31086 ft | 452 kts | 279° |
| 2026-05-05 08:06 | 18.24998 | -64.37783 | 31385 ft | 452 kts | 279° |
| 2026-05-05 08:06 | 18.25539 | -64.41057 | 31641 ft | 454 kts | 279° |
| 2026-05-05 08:07 | 18.26083 | -64.44347 | 31872 ft | 455 kts | 279° |
| 2026-05-05 08:07 | 18.26624 | -64.47621 | 32169 ft | 454 kts | 279° |
| 2026-05-05 08:07 | 18.27158 | -64.50854 | 32466 ft | 453 kts | 279° |
| 2026-05-05 08:07 | 18.27696 | -64.54126 | 32741 ft | 452 kts | 279° |
| 2026-05-05 08:08 | 18.28238 | -64.57412 | 33064 ft | 451 kts | 279° |
| 2026-05-05 08:08 | 18.28764 | -64.60625 | 33391 ft | 449 kts | 279° |
| 2026-05-05 08:08 | 18.29294 | -64.63872 | 33733 ft | 448 kts | 279° |
| 2026-05-05 08:08 | 18.29823 | -64.67101 | 34060 ft | 446 kts | 279° |
| 2026-05-05 08:09 | 18.30346 | -64.70292 | 34351 ft | 444 kts | 279° |
| 2026-05-05 08:09 | 18.30871 | -64.73500 | 34634 ft | 443 kts | 279° |
| 2026-05-05 08:09 | 18.31391 | -64.76671 | 34911 ft | 441 kts | 279° |
| 2026-05-05 08:09 | 18.31916 | -64.79866 | 35190 ft | 440 kts | 279° |
| 2026-05-05 08:10 | 18.32428 | -64.82995 | 35451 ft | 438 kts | 279° |
| 2026-05-05 08:10 | 18.32945 | -64.86166 | 35545 ft | 441 kts | 279° |
| 2026-05-05 08:10 | 18.33968 | -64.92452 | 35677 ft | 434 kts | 279° |
| 2026-05-05 08:11 | 18.34473 | -64.95586 | 35855 ft | 432 kts | 279° |
| 2026-05-05 08:11 | 18.34964 | -64.98709 | 36029 ft | 432 kts | 277° |
| 2026-05-05 08:11 | 18.34743 | -65.04965 | 36054 ft | 431 kts | 258° |
| 2026-05-05 08:12 | 18.32969 | -65.11031 | 36054 ft | 432 kts | 253° |
| 2026-05-05 08:12 | 18.31144 | -65.17044 | 36058 ft | 432 kts | 253° |
| 2026-05-05 08:13 | 18.29803 | -65.23157 | 36060 ft | 430 kts | 267° |
| 2026-05-05 08:13 | 18.30365 | -65.29368 | 36060 ft | 428 kts | 282° |
| 2026-05-05 08:14 | 18.31640 | -65.35470 | 36067 ft | 428 kts | 282° |
| 2026-05-05 08:14 | 18.32913 | -65.41627 | 36019 ft | 430 kts | 282° |
| 2026-05-05 08:15 | 18.34161 | -65.47727 | 36019 ft | 428 kts | 282° |
| 2026-05-05 08:15 | 18.35419 | -65.53845 | 36025 ft | 427 kts | 282° |
| 2026-05-05 08:16 | 18.36679 | -65.59976 | 36027 ft | 427 kts | 282° |
| 2026-05-05 08:16 | 18.37932 | -65.66096 | 36025 ft | 426 kts | 282° |
| 2026-05-05 08:17 | 18.39186 | -65.72186 | 36019 ft | 426 kts | 282° |
| 2026-05-05 08:17 | 18.40431 | -65.78278 | 36021 ft | 426 kts | 282° |
| 2026-05-05 08:18 | 18.41660 | -65.84363 | 36020 ft | 426 kts | 282° |
| 2026-05-05 08:18 | 18.42894 | -65.90451 | 36018 ft | 426 kts | 282° |
| 2026-05-05 08:19 | 18.44353 | -65.96506 | 36018 ft | 426 kts | 291° |
| 2026-05-05 08:19 | 18.47491 | -66.01794 | 36021 ft | 429 kts | 311° |
| 2026-05-05 08:20 | 18.51777 | -66.06173 | 36014 ft | 431 kts | 314° |
| 2026-05-05 08:20 | 18.56093 | -66.10536 | 36022 ft | 430 kts | 314° |
| 2026-05-05 08:21 | 18.60396 | -66.14886 | 36013 ft | 430 kts | 314° |
| 2026-05-05 08:21 | 18.64733 | -66.19275 | 36006 ft | 430 kts | 314° |
| 2026-05-05 08:22 | 18.69035 | -66.23636 | 36013 ft | 430 kts | 314° |
| 2026-05-05 08:22 | 18.73355 | -66.28022 | 36009 ft | 430 kts | 313° |
| 2026-05-05 08:23 | 18.77646 | -66.32386 | 36008 ft | 430 kts | 313° |
| 2026-05-05 08:23 | 18.81942 | -66.36755 | 36009 ft | 430 kts | 313° |
| 2026-05-05 08:24 | 18.86264 | -66.41145 | 36001 ft | 430 kts | 313° |
| 2026-05-05 08:24 | 18.90557 | -66.45516 | 36010 ft | 430 kts | 313° |
| 2026-05-05 08:25 | 18.94390 | -66.50278 | 36010 ft | 426 kts | 302° |
| 2026-05-05 08:25 | 18.97740 | -66.55465 | 36009 ft | 426 kts | 302° |
| 2026-05-05 08:26 | 19.01085 | -66.60606 | 36014 ft | 425 kts | 302° |
| 2026-05-05 08:26 | 19.04444 | -66.65788 | 36013 ft | 425 kts | 302° |
| 2026-05-05 08:27 | 19.07772 | -66.70927 | 36008 ft | 425 kts | 302° |
| 2026-05-05 08:27 | 19.11103 | -66.76079 | 36011 ft | 425 kts | 302° |
| 2026-05-05 08:28 | 19.14447 | -66.81260 | 36014 ft | 425 kts | 302° |
| 2026-05-05 08:28 | 19.17775 | -66.86412 | 36011 ft | 425 kts | 302° |
| 2026-05-05 08:29 | 19.21096 | -66.91543 | 36009 ft | 424 kts | 302° |
| 2026-05-05 08:30 | 19.26069 | -66.99247 | 36011 ft | 423 kts | 302° |
| 2026-05-05 08:30 | 19.29393 | -67.04415 | 36020 ft | 423 kts | 301° |
| 2026-05-05 08:31 | 19.32707 | -67.09568 | 36019 ft | 423 kts | 301° |
| 2026-05-05 08:31 | 19.35998 | -67.14691 | 36019 ft | 423 kts | 301° |
| 2026-05-05 08:32 | 19.39298 | -67.19832 | 36020 ft | 422 kts | 301° |
| 2026-05-05 08:32 | 19.42593 | -67.24966 | 36018 ft | 422 kts | 301° |
| 2026-05-05 08:33 | 19.45898 | -67.30119 | 36023 ft | 421 kts | 301° |
| 2026-05-05 08:33 | 19.49196 | -67.35266 | 36026 ft | 421 kts | 301° |
| 2026-05-05 08:34 | 19.52479 | -67.40384 | 36018 ft | 421 kts | 301° |
| 2026-05-05 08:34 | 19.55761 | -67.45512 | 36019 ft | 421 kts | 301° |
| 2026-05-05 08:35 | 19.59067 | -67.50671 | 36031 ft | 421 kts | 301° |
| 2026-05-05 08:35 | 19.62373 | -67.55798 | 36132 ft | 421 kts | 301° |
| 2026-05-05 08:36 | 19.65684 | -67.60898 | 36320 ft | 420 kts | 301° |
| 2026-05-05 08:36 | 19.67353 | -67.63456 | 36453 ft | 420 kts | 301° |
| 2026-05-05 08:36 | 19.69005 | -67.65980 | 36615 ft | 419 kts | 301° |
| 2026-05-05 08:36 | 19.70676 | -67.68525 | 36791 ft | 418 kts | 301° |
| 2026-05-05 08:37 | 19.72322 | -67.71023 | 36994 ft | 417 kts | 301° |
| 2026-05-05 08:37 | 19.74003 | -67.73563 | 37207 ft | 416 kts | 301° |
| 2026-05-05 08:37 | 19.75652 | -67.76046 | 37447 ft | 415 kts | 302° |
| 2026-05-05 08:37 | 19.77321 | -67.78552 | 37710 ft | 414 kts | 302° |
| 2026-05-05 08:38 | 19.78994 | -67.81052 | 37991 ft | 412 kts | 302° |
| 2026-05-05 08:38 | 19.80656 | -67.83527 | 38293 ft | 409 kts | 302° |
| 2026-05-05 08:38 | 19.82294 | -67.85957 | 38608 ft | 406 kts | 302° |
| 2026-05-05 08:38 | 19.83942 | -67.88391 | 38911 ft | 402 kts | 302° |
| 2026-05-05 08:39 | 19.85576 | -67.90794 | 39221 ft | 398 kts | 302° |
| 2026-05-05 08:39 | 19.87181 | -67.93141 | 39525 ft | 393 kts | 302° |
| 2026-05-05 08:39 | 19.88787 | -67.95478 | 39865 ft | 388 kts | 302° |
| 2026-05-05 08:39 | 19.90359 | -67.97754 | 40188 ft | 382 kts | 302° |
| 2026-05-05 08:40 | 19.91924 | -68.00007 | 40548 ft | 375 kts | 302° |
| 2026-05-05 08:40 | 19.93477 | -68.02227 | 40913 ft | 367 kts | 302° |
| 2026-05-05 08:40 | 19.94983 | -68.04366 | 41273 ft | 359 kts | 302° |
| 2026-05-05 08:40 | 19.96481 | -68.06477 | 41640 ft | 350 kts | 302° |
| 2026-05-05 08:41 | 19.97921 | -68.08490 | 41988 ft | 341 kts | 302° |
| 2026-05-05 08:41 | 19.99350 | -68.10473 | 42212 ft | 336 kts | 302° |
| 2026-05-05 08:41 | 20.00771 | -68.12439 | 42079 ft | 340 kts | 302° |
| 2026-05-05 08:41 | 20.02234 | -68.14462 | 41772 ft | 349 kts | 302° |
| 2026-05-05 08:42 | 20.03727 | -68.16527 | 41704 ft | 350 kts | 303° |
| 2026-05-05 08:42 | 20.05211 | -68.18569 | 41939 ft | 343 kts | 303° |
| 2026-05-05 08:42 | 20.06648 | -68.20532 | 42187 ft | 337 kts | 302° |
| 2026-05-05 08:43 | 20.09565 | -68.24494 | 41934 ft | 346 kts | 303° |
| 2026-05-05 08:43 | 20.11062 | -68.26528 | 41800 ft | 349 kts | 303° |
| 2026-05-05 08:43 | 20.12561 | -68.28555 | 41932 ft | 345 kts | 303° |
| 2026-05-05 08:43 | 20.14025 | -68.30522 | 42146 ft | 339 kts | 303° |
| 2026-05-05 08:44 | 20.15500 | -68.32495 | 42185 ft | 339 kts | 303° |
| 2026-05-05 08:44 | 20.16983 | -68.34474 | 42018 ft | 344 kts | 303° |
| 2026-05-05 08:44 | 20.18477 | -68.36467 | 41871 ft | 348 kts | 303° |
| 2026-05-05 08:45 | 20.21477 | -68.40447 | 42121 ft | 341 kts | 303° |